Airfield :
LOGIN :

Register | Disclaimer

   EN    FR    IT 

 










Legend :    VFR   Marginal VFR   IFR   Intensive IFR   Very Intensive IFR
Visi :
Ceiling :
>= 8 km
>= 3000ft
5 to 8 km
1000 to 3000 ft
1500m to 5 km
500 to 1000 ft
800 to 1500m
200 to 500 ft
< 800m
< 200 ft
Symbols :   Thunderstorms  Fog  Heavy snow  Heavy precipitations  Wind > 20 kt
SIGMETs :     Misc.  Thunderstorms  Icing  Turbulence  Mountain Waves  Volcanic Ashes






- Airport Elevation : 52 ft
- IATA code : IOM


EGNS - Isle of Man

CURRENT METAR :
  • 162350Z 31013KT 9999 FEW010 OVC020 12/08 Q1004

EXPIRED METARs :
  • 162250Z 31009KT 9999 SCT010 OVC022 12/09 Q1004
  • 162150Z 33010KT 8000 -RA SCT010 OVC024 12/10 Q1003
  • 162050Z 33004KT 9999 SCT012 BKN021 11/11 Q1003
  • 161950Z 31006KT 9999 SCT013 BKN045 14/12 Q1002 NOSIG
  • 161920Z 26010KT 9999 -SHRA FEW010 SCT025 13/12 Q1002 NOSIG
  • 161850Z 26010KT 9999 FEW008 SCT030 14/12 Q1001 NOSIG

Expired Forecast.



MET'MAP, your aeronautical weather chart ! - Copyright ORBIFLY December 2007 - Disclaimer

ORBIFLY MET'MAP TEAM :

Programming & Development : Alexandra Zaïnal
Original concept : Baudouin d'Aumeries
Technical & hardware support : Manuel Goepfert
Assistance : Marc-Olivier Méhu




SOURCES & CREDITS :

   NOAA